sensor_id;sensor_type;location;lat;lon;timestamp;temperature;humidity
18173;DHT22;9211;48.818;9.312;2023-04-24T00:00:15;13.30;99.90
18173;DHT22;9211;48.818;9.312;2023-04-24T00:02:44;13.30;99.90
18173;DHT22;9211;48.818;9.312;2023-04-24T00:05:13;13.30;99.90
18173;DHT22;9211;48.818;9.312;2023-04-24T00:07:42;13.30;99.90
18173;DHT22;9211;48.818;9.312;2023-04-24T00:10:09;13.30;99.90
18173;DHT22;9211;48.818;9.312;2023-04-24T00:12:37;13.30;99.90
18173;DHT22;9211;48.818;9.312;2023-04-24T00:15:05;13.30;99.90
18173;DHT22;9211;48.818;9.312;2023-04-24T00:17:32;13.30;99.90
18173;DHT22;9211;48.818;9.312;2023-04-24T00:19:58;13.30;99.90
18173;DHT22;9211;48.818;9.312;2023-04-24T00:22:27;13.40;99.90
18173;DHT22;9211;48.818;9.312;2023-04-24T00:24:55;13.40;99.90
18173;DHT22;9211;48.818;9.312;2023-04-24T00:27:22;13.40;99.90
18173;DHT22;9211;48.818;9.312;2023-04-24T00:29:49;13.40;99.90
18173;DHT22;9211;48.818;9.312;2023-04-24T00:32:16;13.40;99.90
18173;DHT22;9211;48.818;9.312;2023-04-24T00:34:43;13.40;99.90
18173;DHT22;9211;48.818;9.312;2023-04-24T00:37:10;13.40;99.90
18173;DHT22;9211;48.818;9.312;2023-04-24T00:39:37;13.40;99.90
18173;DHT22;9211;48.818;9.312;2023-04-24T00:42:06;13.30;99.90
18173;DHT22;9211;48.818;9.312;2023-04-24T00:44:33;13.30;99.90
18173;DHT22;9211;48.818;9.312;2023-04-24T00:47:01;13.30;99.90
18173;DHT22;9211;48.818;9.312;2023-04-24T00:49:28;13.40;99.90
18173;DHT22;9211;48.818;9.312;2023-04-24T00:51:54;13.40;99.90
18173;DHT22;9211;48.818;9.312;2023-04-24T00:54:22;13.40;99.90
18173;DHT22;9211;48.818;9.312;2023-04-24T00:56:50;13.40;99.90
18173;DHT22;9211;48.818;9.312;2023-04-24T00:59:19;13.40;99.90
18173;DHT22;9211;48.818;9.312;2023-04-24T01:01:46;13.40;99.90
18173;DHT22;9211;48.818;9.312;2023-04-24T01:04:14;13.40;99.90
18173;DHT22;9211;48.818;9.312;2023-04-24T01:06:43;13.40;99.90
18173;DHT22;9211;48.818;9.312;2023-04-24T01:09:11;13.40;99.90
18173;DHT22;9211;48.818;9.312;2023-04-24T01:11:41;13.40;99.90
18173;DHT22;9211;48.818;9.312;2023-04-24T01:14:09;13.40;99.90
18173;DHT22;9211;48.818;9.312;2023-04-24T01:16:37;13.40;99.90
18173;DHT22;9211;48.818;9.312;2023-04-24T01:19:05;13.40;99.90
18173;DHT22;9211;48.818;9.312;2023-04-24T01:21:35;13.40;99.90
18173;DHT22;9211;48.818;9.312;2023-04-24T01:24:05;13.50;99.90
18173;DHT22;9211;48.818;9.312;2023-04-24T01:26:33;13.50;99.90
18173;DHT22;9211;48.818;9.312;2023-04-24T01:29:00;13.50;99.90
18173;DHT22;9211;48.818;9.312;2023-04-24T01:31:28;13.50;99.90
18173;DHT22;9211;48.818;9.312;2023-04-24T01:33:56;13.50;99.90
18173;DHT22;9211;48.818;9.312;2023-04-24T01:36:24;13.50;99.90
18173;DHT22;9211;48.818;9.312;2023-04-24T01:38:52;13.50;99.90
18173;DHT22;9211;48.818;9.312;2023-04-24T01:41:21;13.50;99.90
18173;DHT22;9211;48.818;9.312;2023-04-24T01:43:50;13.50;99.90
18173;DHT22;9211;48.818;9.312;2023-04-24T01:46:19;13.40;99.90
18173;DHT22;9211;48.818;9.312;2023-04-24T01:48:46;13.40;99.90
18173;DHT22;9211;48.818;9.312;2023-04-24T01:51:13;13.40;99.90
18173;DHT22;9211;48.818;9.312;2023-04-24T01:53:40;13.40;99.90
18173;DHT22;9211;48.818;9.312;2023-04-24T01:56:09;13.40;99.90
18173;DHT22;9211;48.818;9.312;2023-04-24T01:58:37;13.40;99.90
18173;DHT22;9211;48.818;9.312;2023-04-24T02:03:55;13.40;99.90
18173;DHT22;9211;48.818;9.312;2023-04-24T02:06:22;13.40;99.90
18173;DHT22;9211;48.818;9.312;2023-04-24T02:08:49;13.40;99.90
18173;DHT22;9211;48.818;9.312;2023-04-24T02:11:16;13.30;99.90
18173;DHT22;9211;48.818;9.312;2023-04-24T02:13:45;13.30;99.90
18173;DHT22;9211;48.818;9.312;2023-04-24T02:16:12;13.30;99.90
18173;DHT22;9211;48.818;9.312;2023-04-24T02:18:39;13.20;99.90
18173;DHT22;9211;48.818;9.312;2023-04-24T02:21:06;13.20;99.90
18173;DHT22;9211;48.818;9.312;2023-04-24T02:23:34;13.20;99.90
18173;DHT22;9211;48.818;9.312;2023-04-24T02:26:02;13.10;99.90
18173;DHT22;9211;48.818;9.312;2023-04-24T02:28:29;13.10;99.90
18173;DHT22;9211;48.818;9.312;2023-04-24T02:30:57;13.10;99.90
18173;DHT22;9211;48.818;9.312;2023-04-24T02:33:24;13.10;99.90
18173;DHT22;9211;48.818;9.312;2023-04-24T02:35:51;13.10;99.90
18173;DHT22;9211;48.818;9.312;2023-04-24T02:38:18;13.10;99.90
18173;DHT22;9211;48.818;9.312;2023-04-24T02:40:45;13.10;99.90
18173;DHT22;9211;48.818;9.312;2023-04-24T02:43:12;13.20;99.90
18173;DHT22;9211;48.818;9.312;2023-04-24T02:45:39;13.10;99.90
18173;DHT22;9211;48.818;9.312;2023-04-24T02:48:07;13.10;99.90
18173;DHT22;9211;48.818;9.312;2023-04-24T02:50:34;13.10;99.90
18173;DHT22;9211;48.818;9.312;2023-04-24T02:53:01;13.10;99.90
18173;DHT22;9211;48.818;9.312;2023-04-24T02:55:28;13.20;99.90
18173;DHT22;9211;48.818;9.312;2023-04-24T02:57:55;13.20;99.90
18173;DHT22;9211;48.818;9.312;2023-04-24T03:00:23;13.20;99.90
18173;DHT22;9211;48.818;9.312;2023-04-24T03:02:50;13.10;99.90
18173;DHT22;9211;48.818;9.312;2023-04-24T03:05:18;13.10;99.90
18173;DHT22;9211;48.818;9.312;2023-04-24T03:07:45;13.00;99.90
18173;DHT22;9211;48.818;9.312;2023-04-24T03:10:12;12.90;99.90
18173;DHT22;9211;48.818;9.312;2023-04-24T03:12:39;12.90;99.90
18173;DHT22;9211;48.818;9.312;2023-04-24T03:15:07;12.90;99.90
18173;DHT22;9211;48.818;9.312;2023-04-24T03:17:36;12.80;99.90
18173;DHT22;9211;48.818;9.312;2023-04-24T03:20:04;12.80;99.90
18173;DHT22;9211;48.818;9.312;2023-04-24T03:22:33;12.80;99.90
18173;DHT22;9211;48.818;9.312;2023-04-24T03:25:03;12.80;99.90
18173;DHT22;9211;48.818;9.312;2023-04-24T03:27:30;12.70;99.90
18173;DHT22;9211;48.818;9.312;2023-04-24T03:30:05;12.60;99.90
18173;DHT22;9211;48.818;9.312;2023-04-24T03:32:43;12.60;99.90
18173;DHT22;9211;48.818;9.312;2023-04-24T03:35:14;12.60;99.90
18173;DHT22;9211;48.818;9.312;2023-04-24T03:37:42;12.60;99.90
18173;DHT22;9211;48.818;9.312;2023-04-24T03:40:32;12.50;99.90
18173;DHT22;9211;48.818;9.312;2023-04-24T03:43:01;12.50;99.90
18173;DHT22;9211;48.818;9.312;2023-04-24T03:45:28;12.50;99.90
18173;DHT22;9211;48.818;9.312;2023-04-24T03:47:56;12.50;99.90
18173;DHT22;9211;48.818;9.312;2023-04-24T03:50:24;12.50;99.90
18173;DHT22;9211;48.818;9.312;2023-04-24T03:52:53;12.50;99.90
18173;DHT22;9211;48.818;9.312;2023-04-24T03:55:32;12.50;99.90
18173;DHT22;9211;48.818;9.312;2023-04-24T03:57:59;12.50;99.90
18173;DHT22;9211;48.818;9.312;2023-04-24T04:00:26;12.50;99.90
18173;DHT22;9211;48.818;9.312;2023-04-24T04:03:14;12.40;99.90
18173;DHT22;9211;48.818;9.312;2023-04-24T04:05:41;12.40;99.90
18173;DHT22;9211;48.818;9.312;2023-04-24T04:08:09;12.30;99.90
18173;DHT22;9211;48.818;9.312;2023-04-24T04:10:37;12.30;99.90
18173;DHT22;9211;48.818;9.312;2023-04-24T04:13:04;12.30;99.90
18173;DHT22;9211;48.818;9.312;2023-04-24T04:15:32;12.20;99.90
18173;DHT22;9211;48.818;9.312;2023-04-24T04:17:58;12.20;99.90
18173;DHT22;9211;48.818;9.312;2023-04-24T04:20:26;12.20;99.90
18173;DHT22;9211;48.818;9.312;2023-04-24T04:22:53;12.20;99.90
18173;DHT22;9211;48.818;9.312;2023-04-24T04:25:31;12.30;99.90
18173;DHT22;9211;48.818;9.312;2023-04-24T04:27:59;12.30;99.90
18173;DHT22;9211;48.818;9.312;2023-04-24T04:30:27;12.30;99.90
18173;DHT22;9211;48.818;9.312;2023-04-24T04:33:01;12.40;99.90
18173;DHT22;9211;48.818;9.312;2023-04-24T04:35:29;12.40;99.90
18173;DHT22;9211;48.818;9.312;2023-04-24T04:37:56;12.40;99.90
18173;DHT22;9211;48.818;9.312;2023-04-24T04:40:41;12.40;99.90
18173;DHT22;9211;48.818;9.312;2023-04-24T04:43:08;12.40;99.90
18173;DHT22;9211;48.818;9.312;2023-04-24T04:45:43;12.40;99.90
18173;DHT22;9211;48.818;9.312;2023-04-24T04:48:37;12.30;99.90
18173;DHT22;9211;48.818;9.312;2023-04-24T04:51:06;12.40;99.90
18173;DHT22;9211;48.818;9.312;2023-04-24T04:53:33;12.30;99.90
18173;DHT22;9211;48.818;9.312;2023-04-24T04:56:02;12.30;99.90
18173;DHT22;9211;48.818;9.312;2023-04-24T04:58:37;12.20;99.90
18173;DHT22;9211;48.818;9.312;2023-04-24T05:01:07;12.20;99.90
18173;DHT22;9211;48.818;9.312;2023-04-24T05:03:42;12.20;99.90
18173;DHT22;9211;48.818;9.312;2023-04-24T05:06:12;12.20;99.90
18173;DHT22;9211;48.818;9.312;2023-04-24T05:08:40;12.20;99.90
18173;DHT22;9211;48.818;9.312;2023-04-24T05:11:26;12.20;99.90
18173;DHT22;9211;48.818;9.312;2023-04-24T05:13:55;12.20;99.90
18173;DHT22;9211;48.818;9.312;2023-04-24T05:16:31;12.10;99.90
18173;DHT22;9211;48.818;9.312;2023-04-24T05:18:58;12.10;99.90
18173;DHT22;9211;48.818;9.312;2023-04-24T05:21:30;12.10;99.90
18173;DHT22;9211;48.818;9.312;2023-04-24T05:23:57;12.10;99.90
18173;DHT22;9211;48.818;9.312;2023-04-24T05:26:42;12.10;99.90
18173;DHT22;9211;48.818;9.312;2023-04-24T05:29:10;12.10;99.90
18173;DHT22;9211;48.818;9.312;2023-04-24T05:31:37;12.10;99.90
18173;DHT22;9211;48.818;9.312;2023-04-24T05:34:04;12.10;99.90
18173;DHT22;9211;48.818;9.312;2023-04-24T05:36:32;12.10;99.90
18173;DHT22;9211;48.818;9.312;2023-04-24T05:38:59;12.10;99.90
18173;DHT22;9211;48.818;9.312;2023-04-24T05:41:25;12.10;99.90
18173;DHT22;9211;48.818;9.312;2023-04-24T05:43:54;12.10;99.90
18173;DHT22;9211;48.818;9.312;2023-04-24T05:46:21;12.10;99.90
18173;DHT22;9211;48.818;9.312;2023-04-24T05:48:49;12.10;99.90
18173;DHT22;9211;48.818;9.312;2023-04-24T05:51:16;12.10;99.90
18173;DHT22;9211;48.818;9.312;2023-04-24T05:53:43;12.10;99.90
18173;DHT22;9211;48.818;9.312;2023-04-24T05:56:11;12.20;99.90
18173;DHT22;9211;48.818;9.312;2023-04-24T05:58:38;12.10;99.90
18173;DHT22;9211;48.818;9.312;2023-04-24T06:01:07;12.10;99.90
18173;DHT22;9211;48.818;9.312;2023-04-24T06:03:37;12.20;99.90
18173;DHT22;9211;48.818;9.312;2023-04-24T06:06:06;12.20;99.90
18173;DHT22;9211;48.818;9.312;2023-04-24T06:08:34;12.20;99.90
18173;DHT22;9211;48.818;9.312;2023-04-24T06:11:01;12.20;99.90
18173;DHT22;9211;48.818;9.312;2023-04-24T06:13:29;12.20;99.90
18173;DHT22;9211;48.818;9.312;2023-04-24T06:16:17;12.20;99.90
18173;DHT22;9211;48.818;9.312;2023-04-24T06:18:51;12.20;99.90
18173;DHT22;9211;48.818;9.312;2023-04-24T06:21:19;12.10;99.90
18173;DHT22;9211;48.818;9.312;2023-04-24T06:23:46;12.10;99.90
18173;DHT22;9211;48.818;9.312;2023-04-24T06:26:14;12.10;99.90
18173;DHT22;9211;48.818;9.312;2023-04-24T06:28:41;12.00;99.90
18173;DHT22;9211;48.818;9.312;2023-04-24T06:31:08;12.00;99.90
18173;DHT22;9211;48.818;9.312;2023-04-24T06:33:37;12.00;99.90
18173;DHT22;9211;48.818;9.312;2023-04-24T06:36:04;12.10;99.90
18173;DHT22;9211;48.818;9.312;2023-04-24T06:38:31;12.20;99.90
18173;DHT22;9211;48.818;9.312;2023-04-24T06:40:59;12.30;99.90
18173;DHT22;9211;48.818;9.312;2023-04-24T06:43:26;12.30;99.90
18173;DHT22;9211;48.818;9.312;2023-04-24T06:45:53;12.40;99.90
18173;DHT22;9211;48.818;9.312;2023-04-24T06:48:20;12.40;99.90
18173;DHT22;9211;48.818;9.312;2023-04-24T06:50:49;12.40;99.90
18173;DHT22;9211;48.818;9.312;2023-04-24T06:53:16;12.40;99.90
18173;DHT22;9211;48.818;9.312;2023-04-24T06:55:43;12.50;99.90
18173;DHT22;9211;48.818;9.312;2023-04-24T06:58:11;12.60;99.90
18173;DHT22;9211;48.818;9.312;2023-04-24T07:00:39;12.60;99.90
18173;DHT22;9211;48.818;9.312;2023-04-24T07:03:06;12.60;99.90
18173;DHT22;9211;48.818;9.312;2023-04-24T07:05:33;12.70;99.90
18173;DHT22;9211;48.818;9.312;2023-04-24T07:08:03;12.80;99.90
18173;DHT22;9211;48.818;9.312;2023-04-24T07:10:30;13.00;99.90
18173;DHT22;9211;48.818;9.312;2023-04-24T07:12:57;13.00;99.90
18173;DHT22;9211;48.818;9.312;2023-04-24T07:15:24;13.00;99.90
18173;DHT22;9211;48.818;9.312;2023-04-24T07:17:51;13.10;99.90
18173;DHT22;9211;48.818;9.312;2023-04-24T07:20:18;13.10;99.90
18173;DHT22;9211;48.818;9.312;2023-04-24T07:22:45;13.10;99.90
18173;DHT22;9211;48.818;9.312;2023-04-24T07:25:13;13.20;99.90
18173;DHT22;9211;48.818;9.312;2023-04-24T07:27:40;13.20;99.90
18173;DHT22;9211;48.818;9.312;2023-04-24T07:30:08;13.20;99.90
18173;DHT22;9211;48.818;9.312;2023-04-24T07:32:35;13.10;99.90
18173;DHT22;9211;48.818;9.312;2023-04-24T07:35:02;13.00;99.90
18173;DHT22;9211;48.818;9.312;2023-04-24T07:37:29;12.90;99.90
18173;DHT22;9211;48.818;9.312;2023-04-24T07:39:56;12.90;99.90
18173;DHT22;9211;48.818;9.312;2023-04-24T07:42:24;12.90;99.90
18173;DHT22;9211;48.818;9.312;2023-04-24T07:44:51;12.90;99.90
18173;DHT22;9211;48.818;9.312;2023-04-24T07:47:18;13.00;99.90
18173;DHT22;9211;48.818;9.312;2023-04-24T07:49:45;13.00;99.90
18173;DHT22;9211;48.818;9.312;2023-04-24T07:52:12;13.10;99.90
18173;DHT22;9211;48.818;9.312;2023-04-24T07:54:38;13.10;99.90
18173;DHT22;9211;48.818;9.312;2023-04-24T07:57:06;13.20;99.90
18173;DHT22;9211;48.818;9.312;2023-04-24T07:59:35;13.20;99.90
18173;DHT22;9211;48.818;9.312;2023-04-24T08:02:02;13.30;99.90
18173;DHT22;9211;48.818;9.312;2023-04-24T08:04:29;13.40;99.90
18173;DHT22;9211;48.818;9.312;2023-04-24T08:06:56;13.40;99.90
18173;DHT22;9211;48.818;9.312;2023-04-24T08:09:23;13.40;99.90
18173;DHT22;9211;48.818;9.312;2023-04-24T08:11:50;13.40;99.90
18173;DHT22;9211;48.818;9.312;2023-04-24T08:14:17;13.40;99.90
18173;DHT22;9211;48.818;9.312;2023-04-24T08:16:47;13.40;99.90
18173;DHT22;9211;48.818;9.312;2023-04-24T08:19:14;13.40;99.90
18173;DHT22;9211;48.818;9.312;2023-04-24T08:21:42;13.30;99.90
18173;DHT22;9211;48.818;9.312;2023-04-24T08:24:09;13.40;99.90
18173;DHT22;9211;48.818;9.312;2023-04-24T08:26:36;13.30;99.90
18173;DHT22;9211;48.818;9.312;2023-04-24T08:29:04;13.30;99.90
18173;DHT22;9211;48.818;9.312;2023-04-24T08:31:32;13.30;99.90
18173;DHT22;9211;48.818;9.312;2023-04-24T08:34:00;13.30;99.90
18173;DHT22;9211;48.818;9.312;2023-04-24T08:36:27;13.40;99.90
18173;DHT22;9211;48.818;9.312;2023-04-24T08:38:59;13.50;99.90
18173;DHT22;9211;48.818;9.312;2023-04-24T08:41:27;13.60;99.90
18173;DHT22;9211;48.818;9.312;2023-04-24T08:43:55;13.70;99.90
18173;DHT22;9211;48.818;9.312;2023-04-24T08:46:24;13.70;99.90
18173;DHT22;9211;48.818;9.312;2023-04-24T08:48:52;13.70;99.90
18173;DHT22;9211;48.818;9.312;2023-04-24T08:51:20;13.70;99.90
18173;DHT22;9211;48.818;9.312;2023-04-24T08:53:48;13.70;99.90
18173;DHT22;9211;48.818;9.312;2023-04-24T08:56:15;13.80;99.90
18173;DHT22;9211;48.818;9.312;2023-04-24T08:58:43;13.80;99.90
18173;DHT22;9211;48.818;9.312;2023-04-24T09:01:11;13.80;99.90
18173;DHT22;9211;48.818;9.312;2023-04-24T09:03:39;13.70;99.90
18173;DHT22;9211;48.818;9.312;2023-04-24T09:06:07;13.70;99.90
18173;DHT22;9211;48.818;9.312;2023-04-24T09:08:36;13.70;99.90
18173;DHT22;9211;48.818;9.312;2023-04-24T09:11:03;13.70;99.90
18173;DHT22;9211;48.818;9.312;2023-04-24T09:13:30;13.50;99.90
18173;DHT22;9211;48.818;9.312;2023-04-24T09:15:58;13.60;99.90
18173;DHT22;9211;48.818;9.312;2023-04-24T09:18:26;13.60;99.90
18173;DHT22;9211;48.818;9.312;2023-04-24T09:21:03;13.60;99.90
18173;DHT22;9211;48.818;9.312;2023-04-24T09:23:32;13.50;99.90
18173;DHT22;9211;48.818;9.312;2023-04-24T09:26:02;13.30;99.90
18173;DHT22;9211;48.818;9.312;2023-04-24T09:28:34;13.30;99.90
18173;DHT22;9211;48.818;9.312;2023-04-24T09:31:03;13.20;99.90
18173;DHT22;9211;48.818;9.312;2023-04-24T09:33:31;13.00;99.90
18173;DHT22;9211;48.818;9.312;2023-04-24T09:35:58;12.90;99.90
18173;DHT22;9211;48.818;9.312;2023-04-24T09:38:33;12.80;99.90
18173;DHT22;9211;48.818;9.312;2023-04-24T09:41:04;12.70;99.90
18173;DHT22;9211;48.818;9.312;2023-04-24T09:43:31;12.60;99.90
18173;DHT22;9211;48.818;9.312;2023-04-24T09:46:00;12.50;99.90
18173;DHT22;9211;48.818;9.312;2023-04-24T09:48:31;12.60;99.90
18173;DHT22;9211;48.818;9.312;2023-04-24T09:50:59;12.60;99.90
18173;DHT22;9211;48.818;9.312;2023-04-24T09:53:27;12.70;99.90
18173;DHT22;9211;48.818;9.312;2023-04-24T09:55:54;12.70;99.90
18173;DHT22;9211;48.818;9.312;2023-04-24T09:58:26;12.70;99.90
18173;DHT22;9211;48.818;9.312;2023-04-24T10:00:54;12.80;99.90
18173;DHT22;9211;48.818;9.312;2023-04-24T10:03:24;13.00;99.90
18173;DHT22;9211;48.818;9.312;2023-04-24T10:05:52;13.20;99.90
18173;DHT22;9211;48.818;9.312;2023-04-24T10:08:20;13.20;99.90
18173;DHT22;9211;48.818;9.312;2023-04-24T10:10:47;13.20;99.90
18173;DHT22;9211;48.818;9.312;2023-04-24T10:13:15;13.10;99.90
18173;DHT22;9211;48.818;9.312;2023-04-24T10:15:46;13.20;99.90
18173;DHT22;9211;48.818;9.312;2023-04-24T10:18:15;13.20;99.90
18173;DHT22;9211;48.818;9.312;2023-04-24T10:20:46;13.20;99.90
18173;DHT22;9211;48.818;9.312;2023-04-24T10:23:13;13.20;99.90
18173;DHT22;9211;48.818;9.312;2023-04-24T10:25:40;13.30;99.90
18173;DHT22;9211;48.818;9.312;2023-04-24T10:28:07;13.30;99.90
18173;DHT22;9211;48.818;9.312;2023-04-24T10:30:35;13.50;99.90
18173;DHT22;9211;48.818;9.312;2023-04-24T10:33:06;13.80;99.90
18173;DHT22;9211;48.818;9.312;2023-04-24T10:35:36;14.00;99.90
18173;DHT22;9211;48.818;9.312;2023-04-24T10:38:06;14.10;99.90
18173;DHT22;9211;48.818;9.312;2023-04-24T10:40:35;14.20;99.90
18173;DHT22;9211;48.818;9.312;2023-04-24T10:43:03;14.20;99.90
18173;DHT22;9211;48.818;9.312;2023-04-24T10:45:32;14.20;99.90
18173;DHT22;9211;48.818;9.312;2023-04-24T10:48:00;14.10;99.90
18173;DHT22;9211;48.818;9.312;2023-04-24T10:50:41;14.00;99.90
18173;DHT22;9211;48.818;9.312;2023-04-24T10:53:13;13.90;99.90
18173;DHT22;9211;48.818;9.312;2023-04-24T10:55:43;13.70;99.90
18173;DHT22;9211;48.818;9.312;2023-04-24T10:58:10;13.60;99.90
18173;DHT22;9211;48.818;9.312;2023-04-24T11:00:39;13.50;99.90
18173;DHT22;9211;48.818;9.312;2023-04-24T11:03:12;13.50;99.90
18173;DHT22;9211;48.818;9.312;2023-04-24T11:05:58;13.50;99.90
18173;DHT22;9211;48.818;9.312;2023-04-24T11:08:28;13.50;99.90
18173;DHT22;9211;48.818;9.312;2023-04-24T11:11:00;13.60;99.90
18173;DHT22;9211;48.818;9.312;2023-04-24T11:14:07;13.70;99.90
18173;DHT22;9211;48.818;9.312;2023-04-24T11:16:37;13.70;99.90
18173;DHT22;9211;48.818;9.312;2023-04-24T11:19:07;13.80;99.90
18173;DHT22;9211;48.818;9.312;2023-04-24T11:21:43;13.80;99.90
18173;DHT22;9211;48.818;9.312;2023-04-24T11:24:31;13.70;99.90
18173;DHT22;9211;48.818;9.312;2023-04-24T11:27:05;13.70;99.90
18173;DHT22;9211;48.818;9.312;2023-04-24T11:29:42;13.80;99.90
18173;DHT22;9211;48.818;9.312;2023-04-24T11:32:18;13.90;99.90
18173;DHT22;9211;48.818;9.312;2023-04-24T11:34:49;14.00;99.90
18173;DHT22;9211;48.818;9.312;2023-04-24T11:37:18;14.20;99.90
18173;DHT22;9211;48.818;9.312;2023-04-24T11:39:45;14.10;99.90
18173;DHT22;9211;48.818;9.312;2023-04-24T11:42:14;14.00;99.90
18173;DHT22;9211;48.818;9.312;2023-04-24T11:44:42;14.20;99.90
18173;DHT22;9211;48.818;9.312;2023-04-24T11:47:09;14.10;99.90
18173;DHT22;9211;48.818;9.312;2023-04-24T11:49:37;14.20;99.90
18173;DHT22;9211;48.818;9.312;2023-04-24T11:52:04;14.10;99.90
18173;DHT22;9211;48.818;9.312;2023-04-24T11:54:33;14.20;99.90
18173;DHT22;9211;48.818;9.312;2023-04-24T11:57:04;14.10;99.90
18173;DHT22;9211;48.818;9.312;2023-04-24T11:59:35;14.10;99.90
18173;DHT22;9211;48.818;9.312;2023-04-24T12:02:02;13.90;99.90
18173;DHT22;9211;48.818;9.312;2023-04-24T12:04:38;13.80;99.90
18173;DHT22;9211;48.818;9.312;2023-04-24T12:07:06;13.80;99.90
18173;DHT22;9211;48.818;9.312;2023-04-24T12:09:42;13.80;99.90
18173;DHT22;9211;48.818;9.312;2023-04-24T12:12:10;13.90;99.90
18173;DHT22;9211;48.818;9.312;2023-04-24T12:14:52;14.00;99.90
18173;DHT22;9211;48.818;9.312;2023-04-24T12:17:24;14.10;99.90
18173;DHT22;9211;48.818;9.312;2023-04-24T12:19:51;14.20;99.90
18173;DHT22;9211;48.818;9.312;2023-04-24T12:22:19;14.30;99.90
18173;DHT22;9211;48.818;9.312;2023-04-24T12:25:00;14.30;99.90
18173;DHT22;9211;48.818;9.312;2023-04-24T12:27:30;14.20;99.90
18173;DHT22;9211;48.818;9.312;2023-04-24T12:29:59;14.10;99.90
18173;DHT22;9211;48.818;9.312;2023-04-24T12:32:27;14.00;99.90
18173;DHT22;9211;48.818;9.312;2023-04-24T12:34:55;14.00;99.90
18173;DHT22;9211;48.818;9.312;2023-04-24T12:37:23;14.00;99.90
18173;DHT22;9211;48.818;9.312;2023-04-24T12:40:02;13.90;99.90
18173;DHT22;9211;48.818;9.312;2023-04-24T12:42:30;13.80;99.90
18173;DHT22;9211;48.818;9.312;2023-04-24T12:44:58;13.80;99.90
18173;DHT22;9211;48.818;9.312;2023-04-24T12:47:26;13.80;99.90
18173;DHT22;9211;48.818;9.312;2023-04-24T12:49:54;13.80;99.90
18173;DHT22;9211;48.818;9.312;2023-04-24T12:52:21;13.70;99.90
18173;DHT22;9211;48.818;9.312;2023-04-24T12:54:49;13.70;99.90
18173;DHT22;9211;48.818;9.312;2023-04-24T12:57:18;13.70;99.90
18173;DHT22;9211;48.818;9.312;2023-04-24T12:59:45;13.70;99.90
18173;DHT22;9211;48.818;9.312;2023-04-24T13:02:12;13.70;99.90
18173;DHT22;9211;48.818;9.312;2023-04-24T13:04:39;13.80;99.90
18173;DHT22;9211;48.818;9.312;2023-04-24T13:07:06;13.80;99.90
18173;DHT22;9211;48.818;9.312;2023-04-24T13:09:34;13.70;99.90
18173;DHT22;9211;48.818;9.312;2023-04-24T13:12:01;13.70;99.90
18173;DHT22;9211;48.818;9.312;2023-04-24T13:14:30;13.60;99.90
18173;DHT22;9211;48.818;9.312;2023-04-24T13:16:56;13.40;99.90
18173;DHT22;9211;48.818;9.312;2023-04-24T13:19:24;13.20;99.90
18173;DHT22;9211;48.818;9.312;2023-04-24T13:21:51;13.00;99.90
18173;DHT22;9211;48.818;9.312;2023-04-24T13:24:19;12.90;99.90
18173;DHT22;9211;48.818;9.312;2023-04-24T13:26:45;12.90;99.90
18173;DHT22;9211;48.818;9.312;2023-04-24T13:29:12;12.90;99.90
18173;DHT22;9211;48.818;9.312;2023-04-24T13:31:41;13.00;99.90
18173;DHT22;9211;48.818;9.312;2023-04-24T13:34:08;13.20;99.90
18173;DHT22;9211;48.818;9.312;2023-04-24T13:36:35;13.40;99.90
18173;DHT22;9211;48.818;9.312;2023-04-24T13:39:01;13.60;99.90
18173;DHT22;9211;48.818;9.312;2023-04-24T13:41:29;13.70;99.90
18173;DHT22;9211;48.818;9.312;2023-04-24T13:43:56;13.80;99.90
18173;DHT22;9211;48.818;9.312;2023-04-24T13:46:23;13.90;99.90
18173;DHT22;9211;48.818;9.312;2023-04-24T13:48:52;14.00;99.90
18173;DHT22;9211;48.818;9.312;2023-04-24T13:51:19;14.00;99.90
18173;DHT22;9211;48.818;9.312;2023-04-24T13:53:46;14.00;99.90
18173;DHT22;9211;48.818;9.312;2023-04-24T13:56:13;13.90;99.90
18173;DHT22;9211;48.818;9.312;2023-04-24T13:58:40;13.80;99.90
18173;DHT22;9211;48.818;9.312;2023-04-24T14:01:07;13.80;99.90
18173;DHT22;9211;48.818;9.312;2023-04-24T14:03:34;13.80;99.90
18173;DHT22;9211;48.818;9.312;2023-04-24T14:06:02;13.70;99.90
18173;DHT22;9211;48.818;9.312;2023-04-24T14:08:29;13.70;99.90
18173;DHT22;9211;48.818;9.312;2023-04-24T14:10:56;13.70;99.90
18173;DHT22;9211;48.818;9.312;2023-04-24T14:13:23;13.60;99.90
18173;DHT22;9211;48.818;9.312;2023-04-24T14:15:53;13.60;99.90
18173;DHT22;9211;48.818;9.312;2023-04-24T14:18:20;13.60;99.90
18173;DHT22;9211;48.818;9.312;2023-04-24T14:20:47;13.70;99.90
18173;DHT22;9211;48.818;9.312;2023-04-24T14:23:16;13.80;99.90
18173;DHT22;9211;48.818;9.312;2023-04-24T14:25:47;13.80;99.90
18173;DHT22;9211;48.818;9.312;2023-04-24T14:28:17;13.80;99.90
18173;DHT22;9211;48.818;9.312;2023-04-24T14:30:47;13.90;99.90
18173;DHT22;9211;48.818;9.312;2023-04-24T14:33:14;14.00;99.90
18173;DHT22;9211;48.818;9.312;2023-04-24T14:35:41;14.10;99.90
18173;DHT22;9211;48.818;9.312;2023-04-24T14:38:09;14.30;99.90
18173;DHT22;9211;48.818;9.312;2023-04-24T14:40:38;14.50;99.90
18173;DHT22;9211;48.818;9.312;2023-04-24T14:43:05;14.60;99.90
18173;DHT22;9211;48.818;9.312;2023-04-24T14:45:32;14.80;99.90
18173;DHT22;9211;48.818;9.312;2023-04-24T14:47:59;15.10;99.90
18173;DHT22;9211;48.818;9.312;2023-04-24T14:50:26;15.30;99.90
18173;DHT22;9211;48.818;9.312;2023-04-24T14:52:54;15.50;99.90
18173;DHT22;9211;48.818;9.312;2023-04-24T14:55:22;15.50;99.90
18173;DHT22;9211;48.818;9.312;2023-04-24T14:57:51;15.50;99.90
18173;DHT22;9211;48.818;9.312;2023-04-24T15:00:19;15.40;99.90
18173;DHT22;9211;48.818;9.312;2023-04-24T15:02:49;15.20;99.90
18173;DHT22;9211;48.818;9.312;2023-04-24T15:05:16;15.10;99.90
18173;DHT22;9211;48.818;9.312;2023-04-24T15:07:43;15.10;99.90
18173;DHT22;9211;48.818;9.312;2023-04-24T15:10:11;15.10;99.90
18173;DHT22;9211;48.818;9.312;2023-04-24T15:12:38;15.10;99.90
18173;DHT22;9211;48.818;9.312;2023-04-24T15:15:08;15.20;99.90
18173;DHT22;9211;48.818;9.312;2023-04-24T15:17:35;15.40;99.90
18173;DHT22;9211;48.818;9.312;2023-04-24T15:20:03;15.50;99.90
18173;DHT22;9211;48.818;9.312;2023-04-24T15:22:32;15.50;99.90
18173;DHT22;9211;48.818;9.312;2023-04-24T15:24:59;15.30;99.90
18173;DHT22;9211;48.818;9.312;2023-04-24T15:27:26;15.10;99.90
18173;DHT22;9211;48.818;9.312;2023-04-24T15:29:53;14.90;99.90
18173;DHT22;9211;48.818;9.312;2023-04-24T15:32:22;14.80;99.90
18173;DHT22;9211;48.818;9.312;2023-04-24T15:34:48;14.60;99.90
18173;DHT22;9211;48.818;9.312;2023-04-24T15:37:16;14.60;99.90
18173;DHT22;9211;48.818;9.312;2023-04-24T15:39:44;14.50;99.90
18173;DHT22;9211;48.818;9.312;2023-04-24T15:42:11;14.40;99.90
18173;DHT22;9211;48.818;9.312;2023-04-24T15:44:38;14.30;99.90
18173;DHT22;9211;48.818;9.312;2023-04-24T15:47:05;14.20;99.90
18173;DHT22;9211;48.818;9.312;2023-04-24T15:49:34;14.10;99.90
18173;DHT22;9211;48.818;9.312;2023-04-24T15:52:01;14.00;99.90
18173;DHT22;9211;48.818;9.312;2023-04-24T15:54:28;13.90;99.90
18173;DHT22;9211;48.818;9.312;2023-04-24T15:56:55;13.80;99.90